sensor_id;sensor_type;location;lat;lon;timestamp;pressure;altitude;pressure_sealevel;temperature;humidity
41062;BME280;26812;42.662;23.352;2023-04-21T00:00:57;94508.00;;;12.34;56.18
41062;BME280;26812;42.662;23.352;2023-04-21T00:03:26;94480.06;;;12.18;56.12
41062;BME280;26812;42.662;23.352;2023-04-21T00:05:55;94475.44;;;12.18;56.21
41062;BME280;26812;42.662;23.352;2023-04-21T00:08:23;94508.44;;;12.60;55.87
41062;BME280;26812;42.662;23.352;2023-04-21T00:10:49;94506.41;;;12.33;56.22
41062;BME280;26812;42.662;23.352;2023-04-21T00:13:14;94490.06;;;12.05;56.50
41062;BME280;26812;42.662;23.352;2023-04-21T00:15:46;94502.13;;;12.20;56.34
41062;BME280;26812;42.662;23.352;2023-04-21T00:18:11;94501.13;;;12.36;56.32
41062;BME280;26812;42.662;23.352;2023-04-21T00:20:37;94500.56;;;12.31;56.06
41062;BME280;26812;42.662;23.352;2023-04-21T00:23:03;94507.53;;;12.32;56.27
41062;BME280;26812;42.662;23.352;2023-04-21T00:25:28;94493.59;;;12.30;55.80
41062;BME280;26812;42.662;23.352;2023-04-21T00:27:54;94492.00;;;12.29;55.85
41062;BME280;26812;42.662;23.352;2023-04-21T00:30:20;94511.38;;;12.31;56.30
41062;BME280;26812;42.662;23.352;2023-04-21T00:32:45;94509.78;;;12.42;55.67
41062;BME280;26812;42.662;23.352;2023-04-21T00:35:11;94488.19;;;12.30;55.67
41062;BME280;26812;42.662;23.352;2023-04-21T00:37:36;94506.41;;;12.33;55.78
41062;BME280;26812;42.662;23.352;2023-04-21T00:40:02;94514.63;;;12.36;55.03
41062;BME280;26812;42.662;23.352;2023-04-21T00:42:29;94492.56;;;12.10;55.92
41062;BME280;26812;42.662;23.352;2023-04-21T00:44:54;94502.78;;;12.17;55.88
41062;BME280;26812;42.662;23.352;2023-04-21T00:47:20;94485.47;;;12.18;55.94
41062;BME280;26812;42.662;23.352;2023-04-21T00:49:45;94493.94;;;12.28;54.80
41062;BME280;26812;42.662;23.352;2023-04-21T00:52:11;94480.97;;;11.97;55.94
41062;BME280;26812;42.662;23.352;2023-04-21T00:54:38;94491.75;;;12.09;56.03
41062;BME280;26812;42.662;23.352;2023-04-21T00:57:04;94474.84;;;11.88;56.07
41062;BME280;26812;42.662;23.352;2023-04-21T00:59:32;94499.97;;;12.13;55.10
41062;BME280;26812;42.662;23.352;2023-04-21T01:01:57;94478.72;;;12.11;55.58
41062;BME280;26812;42.662;23.352;2023-04-21T01:04:23;94489.16;;;12.01;56.02
41062;BME280;26812;42.662;23.352;2023-04-21T01:06:48;94491.94;;;11.92;56.36
41062;BME280;26812;42.662;23.352;2023-04-21T01:09:14;94483.84;;;11.80;58.10
41062;BME280;26812;42.662;23.352;2023-04-21T01:11:40;94493.44;;;12.02;58.38
41062;BME280;26812;42.662;23.352;2023-04-21T01:14:05;94493.66;;;11.97;58.70
41062;BME280;26812;42.662;23.352;2023-04-21T01:16:31;94490.41;;;12.03;57.40
41062;BME280;26812;42.662;23.352;2023-04-21T01:18:58;94499.03;;;11.85;57.23
41062;BME280;26812;42.662;23.352;2023-04-21T01:21:25;94490.94;;;11.85;56.28
41062;BME280;26812;42.662;23.352;2023-04-21T01:23:51;94484.00;;;11.96;55.44
41062;BME280;26812;42.662;23.352;2023-04-21T01:26:18;94481.50;;;11.91;55.28
41062;BME280;26812;42.662;23.352;2023-04-21T01:28:44;94486.44;;;11.89;56.50
41062;BME280;26812;42.662;23.352;2023-04-21T01:31:11;94486.66;;;11.84;55.95
41062;BME280;26812;42.662;23.352;2023-04-21T01:33:37;94487.19;;;11.77;56.07
41062;BME280;26812;42.662;23.352;2023-04-21T01:36:02;94493.50;;;11.81;56.48
41062;BME280;26812;42.662;23.352;2023-04-21T01:38:28;94487.66;;;11.79;56.35
41062;BME280;26812;42.662;23.352;2023-04-21T01:40:54;94497.69;;;11.91;56.23
41062;BME280;26812;42.662;23.352;2023-04-21T01:43:22;94492.78;;;11.72;56.26
41062;BME280;26812;42.662;23.352;2023-04-21T01:45:48;94491.50;;;11.78;56.25
41062;BME280;26812;42.662;23.352;2023-04-21T01:48:13;94477.56;;;11.88;56.14
41062;BME280;26812;42.662;23.352;2023-04-21T01:50:39;94478.03;;;12.02;55.83
41062;BME280;26812;42.662;23.352;2023-04-21T01:53:04;94477.03;;;11.95;55.66
41062;BME280;26812;42.662;23.352;2023-04-21T01:55:31;94472.81;;;11.85;55.98
41062;BME280;26812;42.662;23.352;2023-04-21T01:57:56;94461.19;;;11.72;56.61
41062;BME280;26812;42.662;23.352;2023-04-21T02:00:23;94465.19;;;11.54;58.06
41062;BME280;26812;42.662;23.352;2023-04-21T02:02:48;94484.97;;;11.58;58.99
41062;BME280;26812;42.662;23.352;2023-04-21T02:05:14;94462.59;;;11.45;59.29
41062;BME280;26812;42.662;23.352;2023-04-21T02:07:39;94480.38;;;11.59;59.67
41062;BME280;26812;42.662;23.352;2023-04-21T02:10:05;94462.38;;;11.50;59.12
41062;BME280;26812;42.662;23.352;2023-04-21T02:12:31;94470.47;;;11.50;59.89
41062;BME280;26812;42.662;23.352;2023-04-21T02:14:56;94482.50;;;11.53;59.75
41062;BME280;26812;42.662;23.352;2023-04-21T02:17:21;94486.09;;;11.78;58.56
41062;BME280;26812;42.662;23.352;2023-04-21T02:19:47;94456.53;;;11.48;58.26
41062;BME280;26812;42.662;23.352;2023-04-21T02:22:12;94457.41;;;11.40;57.50
41062;BME280;26812;42.662;23.352;2023-04-21T02:24:38;94474.31;;;11.29;59.02
41062;BME280;26812;42.662;23.352;2023-04-21T02:27:04;94460.34;;;11.47;57.58
41062;BME280;26812;42.662;23.352;2023-04-21T02:29:29;94472.47;;;11.41;57.43
41062;BME280;26812;42.662;23.352;2023-04-21T02:31:55;94477.41;;;11.39;58.29
41062;BME280;26812;42.662;23.352;2023-04-21T02:34:20;94471.09;;;11.35;58.41
41062;BME280;26812;42.662;23.352;2023-04-21T02:36:46;94455.91;;;11.31;57.99
41062;BME280;26812;42.662;23.352;2023-04-21T02:39:12;94456.53;;;11.15;58.69
41062;BME280;26812;42.662;23.352;2023-04-21T02:41:38;94474.94;;;11.13;59.19
41062;BME280;26812;42.662;23.352;2023-04-21T02:44:03;94473.28;;;11.21;58.95
41062;BME280;26812;42.662;23.352;2023-04-21T02:46:29;94467.88;;;11.42;58.29
41062;BME280;26812;42.662;23.352;2023-04-21T02:48:55;94480.78;;;11.36;58.82
41062;BME280;26812;42.662;23.352;2023-04-21T02:51:20;94481.81;;;11.44;58.72
41062;BME280;26812;42.662;23.352;2023-04-21T02:53:46;94473.25;;;11.42;58.95
41062;BME280;26812;42.662;23.352;2023-04-21T02:56:11;94468.69;;;11.55;57.95
41062;BME280;26812;42.662;23.352;2023-04-21T02:58:37;94487.28;;;11.68;57.48
41062;BME280;26812;42.662;23.352;2023-04-21T03:01:03;94463.28;;;11.55;58.01
41062;BME280;26812;42.662;23.352;2023-04-21T03:03:29;94473.44;;;11.70;57.46
41062;BME280;26812;42.662;23.352;2023-04-21T03:06:02;94491.25;;;11.50;58.73
41062;BME280;26812;42.662;23.352;2023-04-21T03:08:28;94442.69;;;11.50;58.06
41062;BME280;26812;42.662;23.352;2023-04-21T03:10:55;94470.72;;;11.58;57.88
41062;BME280;26812;42.662;23.352;2023-04-21T03:13:21;94452.28;;;11.60;57.89
41062;BME280;26812;42.662;23.352;2023-04-21T03:15:47;94478.44;;;11.80;57.34
41062;BME280;26812;42.662;23.352;2023-04-21T03:18:13;94475.19;;;11.87;57.25
41062;BME280;26812;42.662;23.352;2023-04-21T03:20:38;94463.16;;;11.84;57.48
41062;BME280;26812;42.662;23.352;2023-04-21T03:23:03;94483.88;;;12.04;57.31
41062;BME280;26812;42.662;23.352;2023-04-21T03:25:29;94477.94;;;11.99;57.21
41062;BME280;26812;42.662;23.352;2023-04-21T03:27:55;94465.88;;;11.96;56.53
41062;BME280;26812;42.662;23.352;2023-04-21T03:30:21;94494.25;;;12.02;57.22
41062;BME280;26812;42.662;23.352;2023-04-21T03:32:47;94490.53;;;11.95;57.99
41062;BME280;26812;42.662;23.352;2023-04-21T03:35:12;94481.19;;;12.04;56.79
41062;BME280;26812;42.662;23.352;2023-04-21T03:37:38;94487.81;;;12.07;56.75
41062;BME280;26812;42.662;23.352;2023-04-21T03:40:04;94495.03;;;12.15;56.78
41062;BME280;26812;42.662;23.352;2023-04-21T03:42:36;94490.88;;;12.05;56.77
41062;BME280;26812;42.662;23.352;2023-04-21T03:45:06;94468.69;;;12.00;56.82
41062;BME280;26812;42.662;23.352;2023-04-21T03:47:32;94474.19;;;11.91;56.90
41062;BME280;26812;42.662;23.352;2023-04-21T03:49:57;94492.44;;;12.06;56.61
41062;BME280;26812;42.662;23.352;2023-04-21T03:52:23;94507.28;;;12.00;56.78
41062;BME280;26812;42.662;23.352;2023-04-21T03:54:49;94501.00;;;12.08;56.26
41062;BME280;26812;42.662;23.352;2023-04-21T03:57:14;94494.19;;;11.90;57.08
41062;BME280;26812;42.662;23.352;2023-04-21T03:59:40;94509.53;;;12.23;56.75
41062;BME280;26812;42.662;23.352;2023-04-21T04:02:06;94512.94;;;12.32;55.40
41062;BME280;26812;42.662;23.352;2023-04-21T04:04:31;94492.34;;;12.27;55.91
41062;BME280;26812;42.662;23.352;2023-04-21T04:06:56;94507.22;;;12.33;55.26
41062;BME280;26812;42.662;23.352;2023-04-21T04:09:22;94506.97;;;12.26;55.49
41062;BME280;26812;42.662;23.352;2023-04-21T04:11:48;94521.94;;;12.36;55.93
41062;BME280;26812;42.662;23.352;2023-04-21T04:14:13;94521.25;;;12.51;55.23
41062;BME280;26812;42.662;23.352;2023-04-21T04:16:39;94527.59;;;12.55;55.35
41062;BME280;26812;42.662;23.352;2023-04-21T04:19:05;94520.38;;;12.47;55.55
41062;BME280;26812;42.662;23.352;2023-04-21T04:21:31;94512.63;;;12.58;54.56
41062;BME280;26812;42.662;23.352;2023-04-21T04:23:56;94523.63;;;12.65;55.08
41062;BME280;26812;42.662;23.352;2023-04-21T04:26:23;94540.53;;;12.86;54.93
41062;BME280;26812;42.662;23.352;2023-04-21T04:28:50;94512.81;;;12.53;55.27
41062;BME280;26812;42.662;23.352;2023-04-21T04:31:16;94526.22;;;12.73;54.41
41062;BME280;26812;42.662;23.352;2023-04-21T04:33:42;94539.25;;;12.84;55.49
41062;BME280;26812;42.662;23.352;2023-04-21T04:36:08;94543.34;;;12.78;54.36
41062;BME280;26812;42.662;23.352;2023-04-21T04:38:34;94526.44;;;12.44;55.40
41062;BME280;26812;42.662;23.352;2023-04-21T04:41:02;94535.34;;;12.44;54.83
41062;BME280;26812;42.662;23.352;2023-04-21T04:43:29;94544.59;;;12.56;54.80
41062;BME280;26812;42.662;23.352;2023-04-21T04:45:58;94535.78;;;12.47;55.51
41062;BME280;26812;42.662;23.352;2023-04-21T04:48:24;94554.16;;;12.78;54.41
41062;BME280;26812;42.662;23.352;2023-04-21T04:50:49;94547.63;;;12.91;54.55
41062;BME280;26812;42.662;23.352;2023-04-21T04:53:15;94550.50;;;13.10;53.93
41062;BME280;26812;42.662;23.352;2023-04-21T04:55:40;94551.84;;;13.16;53.85
41062;BME280;26812;42.662;23.352;2023-04-21T04:58:06;94543.63;;;13.13;54.13
41062;BME280;26812;42.662;23.352;2023-04-21T05:00:31;94551.75;;;13.25;54.65
41062;BME280;26812;42.662;23.352;2023-04-21T05:03:04;94553.28;;;13.38;53.69
41062;BME280;26812;42.662;23.352;2023-04-21T05:05:29;94556.31;;;13.49;53.36
41062;BME280;26812;42.662;23.352;2023-04-21T05:07:55;94566.91;;;13.54;53.19
41062;BME280;26812;42.662;23.352;2023-04-21T05:10:21;94546.38;;;13.53;52.58
41062;BME280;26812;42.662;23.352;2023-04-21T05:12:47;94559.50;;;13.94;52.17
41062;BME280;26812;42.662;23.352;2023-04-21T05:15:13;94557.28;;;14.28;50.85
41062;BME280;26812;42.662;23.352;2023-04-21T05:17:38;94558.78;;;14.41;50.96
41062;BME280;26812;42.662;23.352;2023-04-21T05:20:05;94561.91;;;14.27;51.00
41062;BME280;26812;42.662;23.352;2023-04-21T05:22:37;94543.06;;;13.87;52.02
41062;BME280;26812;42.662;23.352;2023-04-21T05:25:03;94551.66;;;13.77;52.98
41062;BME280;26812;42.662;23.352;2023-04-21T05:27:28;94546.66;;;13.63;52.87
41062;BME280;26812;42.662;23.352;2023-04-21T05:29:54;94547.00;;;13.90;52.39
41062;BME280;26812;42.662;23.352;2023-04-21T05:32:20;94553.47;;;13.85;52.73
41062;BME280;26812;42.662;23.352;2023-04-21T05:34:45;94552.28;;;14.14;51.87
41062;BME280;26812;42.662;23.352;2023-04-21T05:37:10;94552.13;;;14.39;50.51
41062;BME280;26812;42.662;23.352;2023-04-21T05:39:38;94556.09;;;14.57;50.89
41062;BME280;26812;42.662;23.352;2023-04-21T05:42:04;94556.72;;;14.50;51.13
41062;BME280;26812;42.662;23.352;2023-04-21T05:44:29;94552.84;;;14.83;49.72
41062;BME280;26812;42.662;23.352;2023-04-21T05:46:55;94556.63;;;15.48;48.83
41062;BME280;26812;42.662;23.352;2023-04-21T05:49:20;94530.00;;;15.35;48.90
41062;BME280;26812;42.662;23.352;2023-04-21T05:51:45;94555.44;;;15.84;47.80
41062;BME280;26812;42.662;23.352;2023-04-21T05:54:11;94562.78;;;16.45;46.08
41062;BME280;26812;42.662;23.352;2023-04-21T05:56:36;94552.66;;;16.65;45.59
41062;BME280;26812;42.662;23.352;2023-04-21T05:59:02;94547.09;;;17.07;45.10
41062;BME280;26812;42.662;23.352;2023-04-21T06:01:28;94563.03;;;16.60;45.41
41062;BME280;26812;42.662;23.352;2023-04-21T06:03:53;94541.50;;;16.05;46.36
41062;BME280;26812;42.662;23.352;2023-04-21T06:06:19;94515.41;;;16.01;46.70
41062;BME280;26812;42.662;23.352;2023-04-21T06:08:44;94545.16;;;15.94;46.16
41062;BME280;26812;42.662;23.352;2023-04-21T06:11:09;94535.78;;;15.52;47.87
41062;BME280;26812;42.662;23.352;2023-04-21T06:13:35;94540.66;;;15.82;46.80
41062;BME280;26812;42.662;23.352;2023-04-21T06:16:00;94545.13;;;16.13;46.16
41062;BME280;26812;42.662;23.352;2023-04-21T06:18:26;94548.91;;;16.28;46.92
41062;BME280;26812;42.662;23.352;2023-04-21T06:20:52;94556.13;;;16.20;47.23
41062;BME280;26812;42.662;23.352;2023-04-21T06:23:18;94546.00;;;15.59;47.97
41062;BME280;26812;42.662;23.352;2023-04-21T06:25:44;94551.88;;;16.00;47.92
41062;BME280;26812;42.662;23.352;2023-04-21T06:28:10;94534.91;;;16.06;47.47
41062;BME280;26812;42.662;23.352;2023-04-21T06:30:35;94542.44;;;16.36;46.42
41062;BME280;26812;42.662;23.352;2023-04-21T06:33:01;94556.41;;;16.57;46.62
41062;BME280;26812;42.662;23.352;2023-04-21T06:35:26;94539.09;;;16.46;45.97
41062;BME280;26812;42.662;23.352;2023-04-21T06:37:52;94542.66;;;15.85;47.99
41062;BME280;26812;42.662;23.352;2023-04-21T06:40:17;94550.28;;;15.41;48.09
41062;BME280;26812;42.662;23.352;2023-04-21T06:42:43;94526.34;;;16.04;48.05
41062;BME280;26812;42.662;23.352;2023-04-21T06:45:09;94550.31;;;16.87;46.03
41062;BME280;26812;42.662;23.352;2023-04-21T06:47:34;94545.16;;;17.34;45.50
41062;BME280;26812;42.662;23.352;2023-04-21T06:50:00;94537.50;;;17.74;44.06
41062;BME280;26812;42.662;23.352;2023-04-21T06:52:25;94535.31;;;17.83;43.01
41062;BME280;26812;42.662;23.352;2023-04-21T06:54:51;94532.56;;;18.16;42.64
41062;BME280;26812;42.662;23.352;2023-04-21T06:57:16;94538.25;;;18.38;41.90
41062;BME280;26812;42.662;23.352;2023-04-21T06:59:42;94512.81;;;17.59;42.77
41062;BME280;26812;42.662;23.352;2023-04-21T07:02:07;94497.81;;;16.86;44.58
41062;BME280;26812;42.662;23.352;2023-04-21T07:04:33;94523.78;;;17.36;44.55
41062;BME280;26812;42.662;23.352;2023-04-21T07:06:58;94533.91;;;17.66;43.69
41062;BME280;26812;42.662;23.352;2023-04-21T07:09:24;94531.25;;;17.43;43.71
41062;BME280;26812;42.662;23.352;2023-04-21T07:11:49;94537.19;;;18.12;42.72
41062;BME280;26812;42.662;23.352;2023-04-21T07:14:15;94535.00;;;18.28;42.09
41062;BME280;26812;42.662;23.352;2023-04-21T07:16:40;94534.69;;;17.36;43.68
41062;BME280;26812;42.662;23.352;2023-04-21T07:19:06;94522.47;;;16.97;44.23
41062;BME280;26812;42.662;23.352;2023-04-21T07:21:31;94533.03;;;17.58;44.13
41062;BME280;26812;42.662;23.352;2023-04-21T07:24:00;94531.31;;;18.47;43.51
41062;BME280;26812;42.662;23.352;2023-04-21T07:26:25;94525.38;;;19.37;41.13
41062;BME280;26812;42.662;23.352;2023-04-21T07:28:51;94517.84;;;19.93;39.03
41062;BME280;26812;42.662;23.352;2023-04-21T07:31:17;94534.28;;;20.03;39.76
41062;BME280;26812;42.662;23.352;2023-04-21T07:33:42;94532.09;;;20.62;38.01
41062;BME280;26812;42.662;23.352;2023-04-21T07:36:08;94527.41;;;20.88;37.13
41062;BME280;26812;42.662;23.352;2023-04-21T07:38:33;94523.47;;;21.03;37.35
41062;BME280;26812;42.662;23.352;2023-04-21T07:40:59;94496.06;;;20.25;37.00
41062;BME280;26812;42.662;23.352;2023-04-21T07:43:24;94542.25;;;20.65;37.46
41062;BME280;26812;42.662;23.352;2023-04-21T07:45:51;94529.38;;;21.26;37.13
41062;BME280;26812;42.662;23.352;2023-04-21T07:48:17;94532.38;;;21.67;35.38
41062;BME280;26812;42.662;23.352;2023-04-21T07:50:45;94515.94;;;22.51;34.69
41062;BME280;26812;42.662;23.352;2023-04-21T07:53:10;94513.00;;;23.28;32.31
41062;BME280;26812;42.662;23.352;2023-04-21T07:55:36;94530.00;;;23.61;32.36
41062;BME280;26812;42.662;23.352;2023-04-21T07:58:03;94532.22;;;23.32;32.77
41062;BME280;26812;42.662;23.352;2023-04-21T08:00:28;94520.69;;;23.03;32.44
41062;BME280;26812;42.662;23.352;2023-04-21T08:02:54;94527.00;;;23.41;31.06
41062;BME280;26812;42.662;23.352;2023-04-21T08:05:19;94524.41;;;23.68;32.36
41062;BME280;26812;42.662;23.352;2023-04-21T08:07:45;94528.69;;;24.03;31.19
41062;BME280;26812;42.662;23.352;2023-04-21T08:10:10;94538.28;;;23.50;31.63
41062;BME280;26812;42.662;23.352;2023-04-21T08:12:36;94537.03;;;22.61;32.84
41062;BME280;26812;42.662;23.352;2023-04-21T08:15:01;94529.72;;;21.07;34.47
41062;BME280;26812;42.662;23.352;2023-04-21T08:17:30;94519.19;;;20.81;35.62
41062;BME280;26812;42.662;23.352;2023-04-21T08:19:55;94523.09;;;21.26;35.09
41062;BME280;26812;42.662;23.352;2023-04-21T08:22:21;94516.22;;;21.98;34.23
41062;BME280;26812;42.662;23.352;2023-04-21T08:24:47;94508.66;;;22.86;33.24
41062;BME280;26812;42.662;23.352;2023-04-21T08:27:12;94523.31;;;22.61;33.26
41062;BME280;26812;42.662;23.352;2023-04-21T08:29:38;94526.59;;;21.23;35.25
41062;BME280;26812;42.662;23.352;2023-04-21T08:32:03;94509.38;;;20.44;36.56
41062;BME280;26812;42.662;23.352;2023-04-21T08:34:29;94512.91;;;21.30;35.77
41062;BME280;26812;42.662;23.352;2023-04-21T08:36:54;94502.41;;;22.23;34.36
41062;BME280;26812;42.662;23.352;2023-04-21T08:39:20;94510.34;;;22.69;32.89
41062;BME280;26812;42.662;23.352;2023-04-21T08:41:46;94512.16;;;22.90;33.21
41062;BME280;26812;42.662;23.352;2023-04-21T08:44:12;94519.19;;;22.91;32.35
41062;BME280;26812;42.662;23.352;2023-04-21T08:46:44;94501.56;;;22.88;32.39
41062;BME280;26812;42.662;23.352;2023-04-21T08:49:11;94516.53;;;23.25;32.43
41062;BME280;26812;42.662;23.352;2023-04-21T08:51:37;94508.00;;;23.61;31.94
41062;BME280;26812;42.662;23.352;2023-04-21T08:54:02;94509.84;;;23.30;31.59
41062;BME280;26812;42.662;23.352;2023-04-21T08:56:28;94460.09;;;23.54;31.54
41062;BME280;26812;42.662;23.352;2023-04-21T08:58:53;94512.16;;;24.37;30.74
41062;BME280;26812;42.662;23.352;2023-04-21T09:01:19;94498.16;;;23.94;30.80
41062;BME280;26812;42.662;23.352;2023-04-21T09:03:51;94450.16;;;23.98;29.75
41062;BME280;26812;42.662;23.352;2023-04-21T09:06:16;94489.84;;;24.58;29.97
41062;BME280;26812;42.662;23.352;2023-04-21T09:08:43;94489.91;;;24.78;29.28
41062;BME280;26812;42.662;23.352;2023-04-21T09:11:16;94483.38;;;24.41;29.96
41062;BME280;26812;42.662;23.352;2023-04-21T09:13:42;94486.19;;;24.38;30.04
41062;BME280;26812;42.662;23.352;2023-04-21T09:16:16;94457.88;;;24.07;31.08
41062;BME280;26812;42.662;23.352;2023-04-21T09:18:42;94495.44;;;23.56;31.34
41062;BME280;26812;42.662;23.352;2023-04-21T09:21:17;94483.63;;;22.73;32.37
41062;BME280;26812;42.662;23.352;2023-04-21T09:23:48;94463.47;;;22.42;32.00
41062;BME280;26812;42.662;23.352;2023-04-21T09:26:15;94481.59;;;22.25;33.33
41062;BME280;26812;42.662;23.352;2023-04-21T09:28:45;94489.84;;;21.13;34.66
41062;BME280;26812;42.662;23.352;2023-04-21T09:31:18;94474.56;;;21.30;34.36
41062;BME280;26812;42.662;23.352;2023-04-21T09:33:49;94486.31;;;21.05;35.09
41062;BME280;26812;42.662;23.352;2023-04-21T09:36:23;94482.03;;;20.44;34.64
41062;BME280;26812;42.662;23.352;2023-04-21T09:39:00;94463.63;;;20.30;35.50
41062;BME280;26812;42.662;23.352;2023-04-21T09:41:31;94450.25;;;19.82;35.30
41062;BME280;26812;42.662;23.352;2023-04-21T09:43:57;94462.47;;;20.35;35.28
41062;BME280;26812;42.662;23.352;2023-04-21T09:46:29;94460.53;;;20.42;34.55
41062;BME280;26812;42.662;23.352;2023-04-21T09:49:00;94457.28;;;19.83;34.84
41062;BME280;26812;42.662;23.352;2023-04-21T09:51:26;94461.63;;;20.09;35.23
41062;BME280;26812;42.662;23.352;2023-04-21T09:53:57;94446.81;;;20.32;34.23
41062;BME280;26812;42.662;23.352;2023-04-21T09:56:27;94460.88;;;21.05;34.48
41062;BME280;26812;42.662;23.352;2023-04-21T09:58:57;94458.50;;;21.21;33.30
41062;BME280;26812;42.662;23.352;2023-04-21T10:01:26;94456.50;;;21.39;32.91
41062;BME280;26812;42.662;23.352;2023-04-21T10:03:52;94446.72;;;21.42;32.68
41062;BME280;26812;42.662;23.352;2023-04-21T10:06:19;94452.19;;;21.53;32.82
41062;BME280;26812;42.662;23.352;2023-04-21T10:08:45;94458.13;;;21.26;33.57
41062;BME280;26812;42.662;23.352;2023-04-21T10:11:11;94435.09;;;20.24;35.04
41062;BME280;26812;42.662;23.352;2023-04-21T10:13:38;94437.44;;;20.26;35.28
41062;BME280;26812;42.662;23.352;2023-04-21T10:16:08;94432.00;;;20.40;34.99
41062;BME280;26812;42.662;23.352;2023-04-21T10:18:41;94451.13;;;20.22;35.47
41062;BME280;26812;42.662;23.352;2023-04-21T10:21:08;94439.78;;;20.77;35.00
41062;BME280;26812;42.662;23.352;2023-04-21T10:23:44;94455.38;;;21.08;33.98
41062;BME280;26812;42.662;23.352;2023-04-21T10:26:15;94454.66;;;20.90;34.42
41062;BME280;26812;42.662;23.352;2023-04-21T10:39:09;94436.66;;;20.96;36.20
41062;BME280;26812;42.662;23.352;2023-04-21T10:41:42;94436.28;;;20.91;35.71
41062;BME280;26812;42.662;23.352;2023-04-21T10:44:14;94447.22;;;20.94;35.98
41062;BME280;26812;42.662;23.352;2023-04-21T10:46:47;94448.75;;;21.17;35.25
41062;BME280;26812;42.662;23.352;2023-04-21T10:49:28;94445.56;;;21.36;35.17
41062;BME280;26812;42.662;23.352;2023-04-21T10:57:32;94397.81;;;21.37;33.61
41062;BME280;26812;42.662;23.352;2023-04-21T11:00:47;94454.94;;;21.38;32.57
41062;BME280;26812;42.662;23.352;2023-04-21T11:04:20;94339.78;;;20.23;33.46
41062;BME280;26812;42.662;23.352;2023-04-21T11:07:13;94446.41;;;21.01;33.36
41062;BME280;26812;42.662;23.352;2023-04-21T11:10:03;94304.59;;;20.03;33.27
41062;BME280;26812;42.662;23.352;2023-04-21T11:15:43;94371.66;;;21.07;32.29
41062;BME280;26812;42.662;23.352;2023-04-21T11:19:00;94429.66;;;20.63;34.32
41062;BME280;26812;42.662;23.352;2023-04-21T11:21:49;94313.97;;;20.02;34.49
41062;BME280;26812;42.662;23.352;2023-04-21T11:24:23;94310.44;;;19.80;35.50
41062;BME280;26812;42.662;23.352;2023-04-21T11:27:11;94337.81;;;19.95;36.26
41062;BME280;26812;42.662;23.352;2023-04-21T11:29:48;94327.25;;;20.22;36.44
41062;BME280;26812;42.662;23.352;2023-04-21T11:32:52;94352.13;;;21.05;36.80
41062;BME280;26812;42.662;23.352;2023-04-21T11:35:24;94323.25;;;20.90;34.44
41062;BME280;26812;42.662;23.352;2023-04-21T11:37:50;94382.91;;;21.45;32.88
41062;BME280;26812;42.662;23.352;2023-04-21T11:40:18;94303.22;;;21.04;31.77
41062;BME280;26812;42.662;23.352;2023-04-21T11:42:53;94371.81;;;20.47;33.86
41062;BME280;26812;42.662;23.352;2023-04-21T11:45:21;94345.97;;;19.63;36.70
41062;BME280;26812;42.662;23.352;2023-04-21T11:47:47;94330.28;;;19.45;37.17
41062;BME280;26812;42.662;23.352;2023-04-21T11:50:31;94395.94;;;19.70;37.97
41062;BME280;26812;42.662;23.352;2023-04-21T11:53:20;94407.66;;;19.74;37.47
41062;BME280;26812;42.662;23.352;2023-04-21T11:55:51;94413.78;;;19.43;38.39
41062;BME280;26812;42.662;23.352;2023-04-21T11:58:21;94360.44;;;18.73;39.02
41062;BME280;26812;42.662;23.352;2023-04-21T12:01:27;94414.31;;;19.70;36.39
41062;BME280;26812;42.662;23.352;2023-04-21T12:03:55;94439.28;;;19.75;35.67
41062;BME280;26812;42.662;23.352;2023-04-21T12:06:27;94365.72;;;19.24;34.64
41062;BME280;26812;42.662;23.352;2023-04-21T12:08:59;94429.56;;;19.85;35.25
41062;BME280;26812;42.662;23.352;2023-04-21T12:11:27;94394.41;;;19.80;33.16
41062;BME280;26812;42.662;23.352;2023-04-21T12:13:52;94449.84;;;19.80;34.44
41062;BME280;26812;42.662;23.352;2023-04-21T12:16:18;94438.09;;;19.66;34.70
41062;BME280;26812;42.662;23.352;2023-04-21T12:18:44;94426.38;;;19.62;34.46
41062;BME280;26812;42.662;23.352;2023-04-21T12:21:13;94446.97;;;19.48;35.98
41062;BME280;26812;42.662;23.352;2023-04-21T12:23:40;94449.84;;;19.73;35.49
41062;BME280;26812;42.662;23.352;2023-04-21T12:26:05;94434.31;;;20.31;33.81
41062;BME280;26812;42.662;23.352;2023-04-21T12:28:30;94441.34;;;20.32;33.45
41062;BME280;26812;42.662;23.352;2023-04-21T12:30:56;94417.91;;;20.24;33.61
41062;BME280;26812;42.662;23.352;2023-04-21T12:33:21;94414.00;;;20.28;33.73
41062;BME280;26812;42.662;23.352;2023-04-21T12:35:47;94412.41;;;20.02;34.31
41062;BME280;26812;42.662;23.352;2023-04-21T12:38:12;94396.78;;;19.96;34.28
41062;BME280;26812;42.662;23.352;2023-04-21T12:40:37;94413.59;;;20.33;33.97
41062;BME280;26812;42.662;23.352;2023-04-21T12:43:03;94427.31;;;20.44;34.31
41062;BME280;26812;42.662;23.352;2023-04-21T12:45:28;94427.28;;;20.69;33.51
41062;BME280;26812;42.662;23.352;2023-04-21T12:47:55;94421.81;;;20.76;34.01
41062;BME280;26812;42.662;23.352;2023-04-21T12:50:22;94429.63;;;20.95;33.78
41062;BME280;26812;42.662;23.352;2023-04-21T12:52:48;94428.78;;;21.16;33.24
41062;BME280;26812;42.662;23.352;2023-04-21T12:55:16;94417.91;;;20.84;32.56
41062;BME280;26812;42.662;23.352;2023-04-21T12:57:41;94435.09;;;20.74;32.93
41062;BME280;26812;42.662;23.352;2023-04-21T13:00:08;94414.41;;;20.41;34.00
41062;BME280;26812;42.662;23.352;2023-04-21T13:02:36;94397.97;;;20.69;33.64
41062;BME280;26812;42.662;23.352;2023-04-21T13:05:02;94418.34;;;20.54;34.41
41062;BME280;26812;42.662;23.352;2023-04-21T13:07:29;94432.38;;;20.42;34.23
41062;BME280;26812;42.662;23.352;2023-04-21T13:09:56;94411.28;;;20.60;32.92
41062;BME280;26812;42.662;23.352;2023-04-21T13:12:21;94415.97;;;20.42;33.03